sensor_id;sensor_type;location;lat;lon;timestamp;P1;durP1;ratioP1;P2;durP2;ratioP2
20036;SDS011;10179;42.640;23.312;2023-09-18T00:01:04;16.13;;;11.82;;
20036;SDS011;10179;42.640;23.312;2023-09-18T00:03:31;22.27;;;12.13;;
20036;SDS011;10179;42.640;23.312;2023-09-18T00:05:56;18.98;;;12.23;;
20036;SDS011;10179;42.640;23.312;2023-09-18T00:08:22;18.38;;;12.05;;
20036;SDS011;10179;42.640;23.312;2023-09-18T00:10:51;19.23;;;12.10;;
20036;SDS011;10179;42.640;23.312;2023-09-18T00:13:18;20.38;;;11.50;;
20036;SDS011;10179;42.640;23.312;2023-09-18T00:15:44;19.52;;;11.63;;
20036;SDS011;10179;42.640;23.312;2023-09-18T00:18:12;18.23;;;11.30;;
20036;SDS011;10179;42.640;23.312;2023-09-18T00:20:39;16.67;;;11.23;;
20036;SDS011;10179;42.640;23.312;2023-09-18T00:23:06;20.80;;;11.32;;
20036;SDS011;10179;42.640;23.312;2023-09-18T00:25:31;18.30;;;11.43;;
20036;SDS011;10179;42.640;23.312;2023-09-18T00:27:57;18.92;;;10.63;;
20036;SDS011;10179;42.640;23.312;2023-09-18T00:30:22;17.30;;;11.45;;
20036;SDS011;10179;42.640;23.312;2023-09-18T00:32:48;19.27;;;11.65;;
20036;SDS011;10179;42.640;23.312;2023-09-18T00:35:15;22.25;;;12.30;;
20036;SDS011;10179;42.640;23.312;2023-09-18T00:37:40;20.67;;;11.98;;
20036;SDS011;10179;42.640;23.312;2023-09-18T00:40:06;19.98;;;12.15;;
20036;SDS011;10179;42.640;23.312;2023-09-18T00:42:32;21.10;;;12.60;;
20036;SDS011;10179;42.640;23.312;2023-09-18T00:44:57;19.95;;;12.80;;
20036;SDS011;10179;42.640;23.312;2023-09-18T00:47:23;21.20;;;13.65;;
20036;SDS011;10179;42.640;23.312;2023-09-18T00:49:49;20.40;;;13.07;;
20036;SDS011;10179;42.640;23.312;2023-09-18T00:52:17;20.67;;;13.10;;
20036;SDS011;10179;42.640;23.312;2023-09-18T00:54:45;21.80;;;13.85;;
20036;SDS011;10179;42.640;23.312;2023-09-18T00:57:12;20.58;;;13.55;;
20036;SDS011;10179;42.640;23.312;2023-09-18T00:59:38;22.52;;;13.48;;
20036;SDS011;10179;42.640;23.312;2023-09-18T01:02:04;20.17;;;13.20;;
20036;SDS011;10179;42.640;23.312;2023-09-18T01:04:30;20.85;;;13.05;;
20036;SDS011;10179;42.640;23.312;2023-09-18T01:06:58;20.40;;;14.55;;
20036;SDS011;10179;42.640;23.312;2023-09-18T01:09:30;18.58;;;12.98;;
20036;SDS011;10179;42.640;23.312;2023-09-18T01:12:05;21.35;;;13.48;;
20036;SDS011;10179;42.640;23.312;2023-09-18T01:14:37;25.85;;;14.80;;
20036;SDS011;10179;42.640;23.312;2023-09-18T01:17:14;21.58;;;13.98;;
20036;SDS011;10179;42.640;23.312;2023-09-18T01:19:41;26.65;;;13.82;;
20036;SDS011;10179;42.640;23.312;2023-09-18T01:22:20;27.23;;;17.83;;
20036;SDS011;10179;42.640;23.312;2023-09-18T01:24:47;25.65;;;16.73;;
20036;SDS011;10179;42.640;23.312;2023-09-18T01:27:14;31.15;;;18.77;;
20036;SDS011;10179;42.640;23.312;2023-09-18T01:29:44;30.02;;;19.77;;
20036;SDS011;10179;42.640;23.312;2023-09-18T01:32:10;25.58;;;17.88;;
20036;SDS011;10179;42.640;23.312;2023-09-18T01:34:46;27.83;;;18.08;;
20036;SDS011;10179;42.640;23.312;2023-09-18T01:37:13;30.10;;;17.15;;
20036;SDS011;10179;42.640;23.312;2023-09-18T01:39:40;25.67;;;17.17;;
20036;SDS011;10179;42.640;23.312;2023-09-18T01:42:07;29.10;;;17.88;;
20036;SDS011;10179;42.640;23.312;2023-09-18T01:44:34;26.42;;;17.38;;
20036;SDS011;10179;42.640;23.312;2023-09-18T01:47:02;29.60;;;17.83;;
20036;SDS011;10179;42.640;23.312;2023-09-18T01:49:31;26.13;;;17.10;;
20036;SDS011;10179;42.640;23.312;2023-09-18T01:51:58;23.60;;;16.90;;
20036;SDS011;10179;42.640;23.312;2023-09-18T01:54:24;21.77;;;15.60;;
20036;SDS011;10179;42.640;23.312;2023-09-18T01:56:50;18.95;;;13.43;;
20036;SDS011;10179;42.640;23.312;2023-09-18T01:59:16;22.15;;;14.48;;
20036;SDS011;10179;42.640;23.312;2023-09-18T02:01:43;21.27;;;14.10;;
20036;SDS011;10179;42.640;23.312;2023-09-18T02:04:08;23.08;;;15.10;;
20036;SDS011;10179;42.640;23.312;2023-09-18T02:06:34;27.58;;;16.38;;
20036;SDS011;10179;42.640;23.312;2023-09-18T02:09:00;24.17;;;16.10;;
20036;SDS011;10179;42.640;23.312;2023-09-18T02:11:28;28.60;;;17.40;;
20036;SDS011;10179;42.640;23.312;2023-09-18T02:13:54;24.73;;;16.40;;
20036;SDS011;10179;42.640;23.312;2023-09-18T02:16:19;26.92;;;17.05;;
20036;SDS011;10179;42.640;23.312;2023-09-18T02:18:49;25.13;;;16.50;;
20036;SDS011;10179;42.640;23.312;2023-09-18T02:21:20;23.33;;;14.70;;
20036;SDS011;10179;42.640;23.312;2023-09-18T02:23:50;22.20;;;15.07;;
20036;SDS011;10179;42.640;23.312;2023-09-18T02:26:18;27.13;;;15.55;;
20036;SDS011;10179;42.640;23.312;2023-09-18T02:28:44;22.42;;;14.70;;
20036;SDS011;10179;42.640;23.312;2023-09-18T02:31:09;23.85;;;15.50;;
20036;SDS011;10179;42.640;23.312;2023-09-18T02:33:35;24.58;;;16.52;;
20036;SDS011;10179;42.640;23.312;2023-09-18T02:36:01;22.98;;;16.40;;
20036;SDS011;10179;42.640;23.312;2023-09-18T02:38:27;24.40;;;15.70;;
20036;SDS011;10179;42.640;23.312;2023-09-18T02:40:53;26.50;;;16.45;;
20036;SDS011;10179;42.640;23.312;2023-09-18T02:43:19;26.67;;;17.65;;
20036;SDS011;10179;42.640;23.312;2023-09-18T02:45:44;25.98;;;17.73;;
20036;SDS011;10179;42.640;23.312;2023-09-18T02:48:11;28.55;;;17.85;;
20036;SDS011;10179;42.640;23.312;2023-09-18T02:50:36;30.90;;;18.75;;
20036;SDS011;10179;42.640;23.312;2023-09-18T02:53:02;33.08;;;18.95;;
20036;SDS011;10179;42.640;23.312;2023-09-18T02:55:28;29.75;;;18.35;;
20036;SDS011;10179;42.640;23.312;2023-09-18T02:57:53;26.30;;;17.55;;
20036;SDS011;10179;42.640;23.312;2023-09-18T03:00:19;29.98;;;16.98;;
20036;SDS011;10179;42.640;23.312;2023-09-18T03:02:44;37.85;;;17.80;;
20036;SDS011;10179;42.640;23.312;2023-09-18T03:05:10;28.95;;;18.67;;
20036;SDS011;10179;42.640;23.312;2023-09-18T03:07:35;26.55;;;18.42;;
20036;SDS011;10179;42.640;23.312;2023-09-18T03:10:01;30.58;;;18.52;;
20036;SDS011;10179;42.640;23.312;2023-09-18T03:12:27;30.65;;;17.23;;
20036;SDS011;10179;42.640;23.312;2023-09-18T03:14:53;26.13;;;17.40;;
20036;SDS011;10179;42.640;23.312;2023-09-18T03:17:18;27.10;;;17.45;;
20036;SDS011;10179;42.640;23.312;2023-09-18T03:19:47;25.90;;;17.13;;
20036;SDS011;10179;42.640;23.312;2023-09-18T03:22:13;25.35;;;18.23;;
20036;SDS011;10179;42.640;23.312;2023-09-18T03:24:39;26.23;;;16.10;;
20036;SDS011;10179;42.640;23.312;2023-09-18T03:27:04;28.35;;;17.02;;
20036;SDS011;10179;42.640;23.312;2023-09-18T03:29:30;31.63;;;17.63;;
20036;SDS011;10179;42.640;23.312;2023-09-18T03:31:55;25.10;;;16.58;;
20036;SDS011;10179;42.640;23.312;2023-09-18T03:34:23;24.48;;;15.98;;
20036;SDS011;10179;42.640;23.312;2023-09-18T03:36:51;27.33;;;16.83;;
20036;SDS011;10179;42.640;23.312;2023-09-18T03:39:16;28.83;;;16.90;;
20036;SDS011;10179;42.640;23.312;2023-09-18T03:41:42;26.40;;;16.17;;
20036;SDS011;10179;42.640;23.312;2023-09-18T03:44:07;24.23;;;16.08;;
20036;SDS011;10179;42.640;23.312;2023-09-18T03:46:33;23.98;;;15.88;;
20036;SDS011;10179;42.640;23.312;2023-09-18T03:48:59;27.85;;;16.95;;
20036;SDS011;10179;42.640;23.312;2023-09-18T03:51:24;27.67;;;17.60;;
20036;SDS011;10179;42.640;23.312;2023-09-18T03:53:50;28.15;;;17.27;;
20036;SDS011;10179;42.640;23.312;2023-09-18T03:56:16;25.13;;;17.27;;
20036;SDS011;10179;42.640;23.312;2023-09-18T03:58:41;27.85;;;16.88;;
20036;SDS011;10179;42.640;23.312;2023-09-18T04:01:07;27.25;;;17.65;;
20036;SDS011;10179;42.640;23.312;2023-09-18T04:03:32;28.77;;;18.80;;
20036;SDS011;10179;42.640;23.312;2023-09-18T04:05:58;32.00;;;18.17;;
20036;SDS011;10179;42.640;23.312;2023-09-18T04:08:23;27.02;;;17.25;;
20036;SDS011;10179;42.640;23.312;2023-09-18T04:10:49;33.78;;;18.90;;
20036;SDS011;10179;42.640;23.312;2023-09-18T04:13:14;30.63;;;19.23;;
20036;SDS011;10179;42.640;23.312;2023-09-18T04:15:39;27.55;;;18.23;;
20036;SDS011;10179;42.640;23.312;2023-09-18T04:18:05;34.95;;;18.75;;
20036;SDS011;10179;42.640;23.312;2023-09-18T04:20:30;27.55;;;17.73;;
20036;SDS011;10179;42.640;23.312;2023-09-18T04:25:51;29.85;;;18.27;;
20036;SDS011;10179;42.640;23.312;2023-09-18T04:28:18;28.30;;;17.58;;
20036;SDS011;10179;42.640;23.312;2023-09-18T04:30:45;35.88;;;18.52;;
20036;SDS011;10179;42.640;23.312;2023-09-18T04:33:10;36.33;;;19.83;;
20036;SDS011;10179;42.640;23.312;2023-09-18T04:35:37;31.45;;;19.25;;
20036;SDS011;10179;42.640;23.312;2023-09-18T04:38:04;32.60;;;19.00;;
20036;SDS011;10179;42.640;23.312;2023-09-18T04:40:32;31.10;;;18.48;;
20036;SDS011;10179;42.640;23.312;2023-09-18T04:42:58;28.85;;;18.48;;
20036;SDS011;10179;42.640;23.312;2023-09-18T04:45:24;28.65;;;17.90;;
20036;SDS011;10179;42.640;23.312;2023-09-18T04:47:50;28.27;;;17.92;;
20036;SDS011;10179;42.640;23.312;2023-09-18T04:50:15;32.28;;;18.08;;
20036;SDS011;10179;42.640;23.312;2023-09-18T04:52:41;29.00;;;17.98;;
20036;SDS011;10179;42.640;23.312;2023-09-18T04:55:07;30.73;;;18.70;;
20036;SDS011;10179;42.640;23.312;2023-09-18T04:57:33;31.00;;;17.80;;
20036;SDS011;10179;42.640;23.312;2023-09-18T04:59:59;31.15;;;17.73;;
20036;SDS011;10179;42.640;23.312;2023-09-18T05:02:25;27.48;;;17.95;;
20036;SDS011;10179;42.640;23.312;2023-09-18T05:04:50;27.02;;;16.17;;
20036;SDS011;10179;42.640;23.312;2023-09-18T05:07:16;28.95;;;17.95;;
20036;SDS011;10179;42.640;23.312;2023-09-18T05:09:42;28.30;;;17.45;;
20036;SDS011;10179;42.640;23.312;2023-09-18T05:12:08;32.13;;;17.33;;
20036;SDS011;10179;42.640;23.312;2023-09-18T05:14:39;30.52;;;15.90;;
20036;SDS011;10179;42.640;23.312;2023-09-18T05:17:05;29.25;;;17.08;;
20036;SDS011;10179;42.640;23.312;2023-09-18T05:19:30;27.08;;;16.65;;
20036;SDS011;10179;42.640;23.312;2023-09-18T05:21:55;28.23;;;17.15;;
20036;SDS011;10179;42.640;23.312;2023-09-18T05:24:21;25.77;;;16.17;;
20036;SDS011;10179;42.640;23.312;2023-09-18T05:26:51;28.60;;;16.98;;
20036;SDS011;10179;42.640;23.312;2023-09-18T05:29:17;23.58;;;16.85;;
20036;SDS011;10179;42.640;23.312;2023-09-18T05:31:43;27.75;;;16.95;;
20036;SDS011;10179;42.640;23.312;2023-09-18T05:34:08;31.35;;;17.33;;
20036;SDS011;10179;42.640;23.312;2023-09-18T05:36:34;28.10;;;16.85;;
20036;SDS011;10179;42.640;23.312;2023-09-18T05:39:00;30.35;;;16.42;;
20036;SDS011;10179;42.640;23.312;2023-09-18T05:41:25;24.75;;;15.77;;
20036;SDS011;10179;42.640;23.312;2023-09-18T05:43:53;25.95;;;16.70;;
20036;SDS011;10179;42.640;23.312;2023-09-18T05:46:19;25.70;;;15.52;;
20036;SDS011;10179;42.640;23.312;2023-09-18T05:48:45;29.60;;;15.93;;
20036;SDS011;10179;42.640;23.312;2023-09-18T05:51:11;23.90;;;16.23;;
20036;SDS011;10179;42.640;23.312;2023-09-18T05:53:36;24.77;;;16.05;;
20036;SDS011;10179;42.640;23.312;2023-09-18T05:56:03;27.83;;;16.63;;
20036;SDS011;10179;42.640;23.312;2023-09-18T05:58:31;22.08;;;15.07;;
20036;SDS011;10179;42.640;23.312;2023-09-18T06:00:59;28.52;;;15.50;;
20036;SDS011;10179;42.640;23.312;2023-09-18T06:03:27;26.50;;;15.50;;
20036;SDS011;10179;42.640;23.312;2023-09-18T06:05:55;25.27;;;15.88;;
20036;SDS011;10179;42.640;23.312;2023-09-18T06:08:21;30.83;;;16.48;;
20036;SDS011;10179;42.640;23.312;2023-09-18T06:10:46;21.63;;;14.85;;
20036;SDS011;10179;42.640;23.312;2023-09-18T06:13:12;23.83;;;15.35;;
20036;SDS011;10179;42.640;23.312;2023-09-18T06:15:37;26.25;;;14.73;;
20036;SDS011;10179;42.640;23.312;2023-09-18T06:18:03;23.80;;;14.43;;
20036;SDS011;10179;42.640;23.312;2023-09-18T06:20:28;22.52;;;15.05;;
20036;SDS011;10179;42.640;23.312;2023-09-18T06:22:54;24.83;;;14.73;;
20036;SDS011;10179;42.640;23.312;2023-09-18T06:25:19;26.05;;;16.33;;
20036;SDS011;10179;42.640;23.312;2023-09-18T06:27:45;22.67;;;13.80;;
20036;SDS011;10179;42.640;23.312;2023-09-18T06:30:11;32.58;;;15.60;;
20036;SDS011;10179;42.640;23.312;2023-09-18T06:32:36;24.70;;;14.80;;
20036;SDS011;10179;42.640;23.312;2023-09-18T06:35:02;24.67;;;14.75;;
20036;SDS011;10179;42.640;23.312;2023-09-18T06:37:28;24.95;;;14.75;;
20036;SDS011;10179;42.640;23.312;2023-09-18T06:39:53;24.10;;;14.65;;
20036;SDS011;10179;42.640;23.312;2023-09-18T06:42:19;25.95;;;15.48;;
20036;SDS011;10179;42.640;23.312;2023-09-18T06:44:44;22.88;;;13.68;;
20036;SDS011;10179;42.640;23.312;2023-09-18T06:47:10;22.38;;;13.73;;
20036;SDS011;10179;42.640;23.312;2023-09-18T06:49:35;28.58;;;14.77;;
20036;SDS011;10179;42.640;23.312;2023-09-18T06:52:01;19.42;;;13.32;;
20036;SDS011;10179;42.640;23.312;2023-09-18T06:54:27;18.38;;;12.57;;
20036;SDS011;10179;42.640;23.312;2023-09-18T06:56:52;18.02;;;12.18;;
20036;SDS011;10179;42.640;23.312;2023-09-18T06:59:18;17.35;;;11.80;;
20036;SDS011;10179;42.640;23.312;2023-09-18T07:01:43;18.25;;;11.38;;
20036;SDS011;10179;42.640;23.312;2023-09-18T07:04:09;18.70;;;12.10;;
20036;SDS011;10179;42.640;23.312;2023-09-18T07:06:34;17.23;;;10.70;;
20036;SDS011;10179;42.640;23.312;2023-09-18T07:09:00;23.50;;;11.68;;
20036;SDS011;10179;42.640;23.312;2023-09-18T07:11:25;17.77;;;11.43;;
20036;SDS011;10179;42.640;23.312;2023-09-18T07:13:51;18.08;;;11.40;;
20036;SDS011;10179;42.640;23.312;2023-09-18T07:16:16;15.45;;;10.52;;
20036;SDS011;10179;42.640;23.312;2023-09-18T07:18:41;20.20;;;10.82;;
20036;SDS011;10179;42.640;23.312;2023-09-18T07:21:07;15.30;;;10.50;;
20036;SDS011;10179;42.640;23.312;2023-09-18T07:23:32;17.75;;;10.95;;
20036;SDS011;10179;42.640;23.312;2023-09-18T07:26:02;14.15;;;10.68;;
20036;SDS011;10179;42.640;23.312;2023-09-18T07:28:27;14.20;;;10.23;;
20036;SDS011;10179;42.640;23.312;2023-09-18T07:30:53;15.57;;;10.38;;
20036;SDS011;10179;42.640;23.312;2023-09-18T07:33:18;19.48;;;11.73;;
20036;SDS011;10179;42.640;23.312;2023-09-18T07:35:45;12.98;;;9.75;;
20036;SDS011;10179;42.640;23.312;2023-09-18T07:38:16;14.10;;;9.85;;
20036;SDS011;10179;42.640;23.312;2023-09-18T07:40:44;14.82;;;10.40;;
20036;SDS011;10179;42.640;23.312;2023-09-18T07:43:09;15.00;;;10.18;;
20036;SDS011;10179;42.640;23.312;2023-09-18T07:45:35;16.08;;;9.38;;
20036;SDS011;10179;42.640;23.312;2023-09-18T07:48:03;14.05;;;9.63;;
20036;SDS011;10179;42.640;23.312;2023-09-18T07:50:28;16.38;;;9.65;;
20036;SDS011;10179;42.640;23.312;2023-09-18T07:52:56;19.08;;;10.57;;
20036;SDS011;10179;42.640;23.312;2023-09-18T07:55:21;16.67;;;11.00;;
20036;SDS011;10179;42.640;23.312;2023-09-18T07:57:47;15.30;;;10.52;;
20036;SDS011;10179;42.640;23.312;2023-09-18T08:00:14;17.63;;;11.10;;
20036;SDS011;10179;42.640;23.312;2023-09-18T08:02:40;16.60;;;10.85;;
20036;SDS011;10179;42.640;23.312;2023-09-18T08:05:07;13.13;;;9.68;;
20036;SDS011;10179;42.640;23.312;2023-09-18T08:07:33;12.70;;;9.52;;
20036;SDS011;10179;42.640;23.312;2023-09-18T08:10:00;14.18;;;9.88;;
20036;SDS011;10179;42.640;23.312;2023-09-18T08:12:25;14.90;;;10.30;;
20036;SDS011;10179;42.640;23.312;2023-09-18T08:14:51;16.15;;;9.55;;
20036;SDS011;10179;42.640;23.312;2023-09-18T08:17:16;18.08;;;10.07;;
20036;SDS011;10179;42.640;23.312;2023-09-18T08:19:42;19.63;;;8.48;;
20036;SDS011;10179;42.640;23.312;2023-09-18T08:22:09;15.52;;;9.48;;
20036;SDS011;10179;42.640;23.312;2023-09-18T08:24:36;16.27;;;11.32;;
20036;SDS011;10179;42.640;23.312;2023-09-18T08:27:02;12.38;;;8.30;;
20036;SDS011;10179;42.640;23.312;2023-09-18T08:29:28;12.35;;;9.20;;
20036;SDS011;10179;42.640;23.312;2023-09-18T08:31:54;15.02;;;10.55;;
20036;SDS011;10179;42.640;23.312;2023-09-18T08:34:19;13.07;;;9.88;;
20036;SDS011;10179;42.640;23.312;2023-09-18T08:36:44;13.07;;;9.13;;
20036;SDS011;10179;42.640;23.312;2023-09-18T08:39:10;15.50;;;9.88;;
20036;SDS011;10179;42.640;23.312;2023-09-18T08:41:38;12.55;;;9.35;;
20036;SDS011;10179;42.640;23.312;2023-09-18T08:44:07;14.88;;;9.30;;
20036;SDS011;10179;42.640;23.312;2023-09-18T08:46:34;12.80;;;8.98;;
20036;SDS011;10179;42.640;23.312;2023-09-18T08:49:00;13.90;;;9.48;;
20036;SDS011;10179;42.640;23.312;2023-09-18T08:51:26;14.63;;;9.77;;
20036;SDS011;10179;42.640;23.312;2023-09-18T08:53:52;13.13;;;9.52;;
20036;SDS011;10179;42.640;23.312;2023-09-18T08:56:19;13.73;;;9.15;;
20036;SDS011;10179;42.640;23.312;2023-09-18T08:58:49;16.75;;;9.48;;
20036;SDS011;10179;42.640;23.312;2023-09-18T09:01:18;14.40;;;9.00;;
20036;SDS011;10179;42.640;23.312;2023-09-18T09:03:44;12.80;;;9.05;;
20036;SDS011;10179;42.640;23.312;2023-09-18T09:06:11;11.82;;;8.90;;
20036;SDS011;10179;42.640;23.312;2023-09-18T09:08:37;12.48;;;8.43;;
20036;SDS011;10179;42.640;23.312;2023-09-18T09:11:03;11.70;;;8.52;;
20036;SDS011;10179;42.640;23.312;2023-09-18T09:13:28;12.13;;;8.55;;
20036;SDS011;10179;42.640;23.312;2023-09-18T09:15:55;15.25;;;8.70;;
20036;SDS011;10179;42.640;23.312;2023-09-18T09:18:23;10.85;;;8.05;;
20036;SDS011;10179;42.640;23.312;2023-09-18T09:20:56;12.75;;;8.82;;
20036;SDS011;10179;42.640;23.312;2023-09-18T09:23:27;13.38;;;8.40;;
20036;SDS011;10179;42.640;23.312;2023-09-18T09:26:18;9.25;;;6.63;;
20036;SDS011;10179;42.640;23.312;2023-09-18T09:28:46;16.13;;;7.78;;
20036;SDS011;10179;42.640;23.312;2023-09-18T09:31:26;11.00;;;7.10;;
20036;SDS011;10179;42.640;23.312;2023-09-18T09:33:53;7.65;;;5.05;;
20036;SDS011;10179;42.640;23.312;2023-09-18T09:36:22;10.20;;;7.13;;
20036;SDS011;10179;42.640;23.312;2023-09-18T09:38:49;9.88;;;6.38;;
20036;SDS011;10179;42.640;23.312;2023-09-18T09:41:19;10.55;;;6.57;;
20036;SDS011;10179;42.640;23.312;2023-09-18T09:43:46;12.50;;;7.07;;
20036;SDS011;10179;42.640;23.312;2023-09-18T09:46:15;11.25;;;6.40;;
20036;SDS011;10179;42.640;23.312;2023-09-18T09:49:01;11.27;;;7.13;;
20036;SDS011;10179;42.640;23.312;2023-09-18T09:51:29;8.80;;;5.93;;
20036;SDS011;10179;42.640;23.312;2023-09-18T09:53:56;10.20;;;6.15;;
20036;SDS011;10179;42.640;23.312;2023-09-18T09:56:39;12.82;;;5.55;;
20036;SDS011;10179;42.640;23.312;2023-09-18T09:59:16;10.52;;;6.45;;
20036;SDS011;10179;42.640;23.312;2023-09-18T10:01:46;9.38;;;6.40;;
20036;SDS011;10179;42.640;23.312;2023-09-18T10:04:14;7.78;;;5.93;;
20036;SDS011;10179;42.640;23.312;2023-09-18T10:06:47;8.43;;;5.50;;
20036;SDS011;10179;42.640;23.312;2023-09-18T10:09:20;8.90;;;5.38;;
20036;SDS011;10179;42.640;23.312;2023-09-18T10:11:51;8.07;;;5.90;;
20036;SDS011;10179;42.640;23.312;2023-09-18T10:14:19;10.23;;;5.25;;
20036;SDS011;10179;42.640;23.312;2023-09-18T10:16:48;7.70;;;4.88;;
20036;SDS011;10179;42.640;23.312;2023-09-18T10:19:21;13.95;;;6.88;;
20036;SDS011;10179;42.640;23.312;2023-09-18T10:24:38;10.93;;;5.93;;
20036;SDS011;10179;42.640;23.312;2023-09-18T10:27:06;10.93;;;5.43;;
20036;SDS011;10179;42.640;23.312;2023-09-18T10:29:34;8.93;;;6.28;;
20036;SDS011;10179;42.640;23.312;2023-09-18T10:32:04;10.82;;;5.90;;
20036;SDS011;10179;42.640;23.312;2023-09-18T10:34:32;9.80;;;5.97;;
20036;SDS011;10179;42.640;23.312;2023-09-18T10:36:58;7.90;;;5.55;;
20036;SDS011;10179;42.640;23.312;2023-09-18T10:39:25;7.47;;;5.70;;
20036;SDS011;10179;42.640;23.312;2023-09-18T10:41:54;9.43;;;5.82;;
20036;SDS011;10179;42.640;23.312;2023-09-18T10:44:20;9.82;;;6.63;;
20036;SDS011;10179;42.640;23.312;2023-09-18T10:46:48;10.80;;;5.90;;
20036;SDS011;10179;42.640;23.312;2023-09-18T10:49:15;9.57;;;5.80;;
20036;SDS011;10179;42.640;23.312;2023-09-18T10:51:41;6.97;;;5.05;;
20036;SDS011;10179;42.640;23.312;2023-09-18T10:54:11;10.20;;;6.10;;
20036;SDS011;10179;42.640;23.312;2023-09-18T10:56:43;6.57;;;5.18;;
20036;SDS011;10179;42.640;23.312;2023-09-18T10:59:09;11.70;;;5.20;;
20036;SDS011;10179;42.640;23.312;2023-09-18T11:01:35;10.13;;;6.03;;
20036;SDS011;10179;42.640;23.312;2023-09-18T11:04:04;9.55;;;5.90;;
20036;SDS011;10179;42.640;23.312;2023-09-18T11:09:22;6.78;;;4.85;;
20036;SDS011;10179;42.640;23.312;2023-09-18T11:17:27;7.05;;;4.85;;
20036;SDS011;10179;42.640;23.312;2023-09-18T11:20:15;6.68;;;5.00;;
20036;SDS011;10179;42.640;23.312;2023-09-18T11:22:46;6.13;;;4.97;;
20036;SDS011;10179;42.640;23.312;2023-09-18T11:28:14;5.25;;;4.75;;
20036;SDS011;10179;42.640;23.312;2023-09-18T11:30:50;7.88;;;4.30;;
20036;SDS011;10179;42.640;23.312;2023-09-18T11:33:32;6.07;;;4.32;;
20036;SDS011;10179;42.640;23.312;2023-09-18T11:36:01;5.88;;;4.25;;
20036;SDS011;10179;42.640;23.312;2023-09-18T11:38:31;5.70;;;4.15;;
20036;SDS011;10179;42.640;23.312;2023-09-18T11:40:58;5.95;;;4.50;;
20036;SDS011;10179;42.640;23.312;2023-09-18T11:43:27;9.57;;;4.85;;
20036;SDS011;10179;42.640;23.312;2023-09-18T11:45:57;7.68;;;4.15;;
20036;SDS011;10179;42.640;23.312;2023-09-18T11:48:24;5.32;;;4.30;;
20036;SDS011;10179;42.640;23.312;2023-09-18T11:50:54;7.72;;;3.97;;
20036;SDS011;10179;42.640;23.312;2023-09-18T11:53:23;7.70;;;4.60;;
20036;SDS011;10179;42.640;23.312;2023-09-18T11:55:49;6.38;;;4.22;;
20036;SDS011;10179;42.640;23.312;2023-09-18T11:58:15;6.40;;;4.30;;
20036;SDS011;10179;42.640;23.312;2023-09-18T12:00:40;5.35;;;4.30;;
20036;SDS011;10179;42.640;23.312;2023-09-18T12:03:15;5.28;;;3.53;;
20036;SDS011;10179;42.640;23.312;2023-09-18T12:05:43;7.30;;;4.45;;
20036;SDS011;10179;42.640;23.312;2023-09-18T12:08:10;7.57;;;4.53;;
20036;SDS011;10179;42.640;23.312;2023-09-18T12:10:36;6.90;;;4.10;;
20036;SDS011;10179;42.640;23.312;2023-09-18T12:13:06;10.75;;;4.40;;
20036;SDS011;10179;42.640;23.312;2023-09-18T12:15:36;10.88;;;4.57;;
20036;SDS011;10179;42.640;23.312;2023-09-18T12:18:05;8.25;;;4.50;;
20036;SDS011;10179;42.640;23.312;2023-09-18T12:20:34;7.15;;;3.90;;
20036;SDS011;10179;42.640;23.312;2023-09-18T12:22:59;7.05;;;4.07;;
20036;SDS011;10179;42.640;23.312;2023-09-18T12:25:25;5.07;;;4.00;;
20036;SDS011;10179;42.640;23.312;2023-09-18T12:27:51;9.38;;;4.43;;
20036;SDS011;10179;42.640;23.312;2023-09-18T12:30:17;5.25;;;3.80;;
20036;SDS011;10179;42.640;23.312;2023-09-18T12:32:46;6.75;;;4.15;;
20036;SDS011;10179;42.640;23.312;2023-09-18T12:35:14;7.45;;;4.85;;
20036;SDS011;10179;42.640;23.312;2023-09-18T12:37:40;5.82;;;4.43;;
20036;SDS011;10179;42.640;23.312;2023-09-18T12:40:06;7.22;;;4.25;;
20036;SDS011;10179;42.640;23.312;2023-09-18T12:42:45;6.72;;;4.45;;
20036;SDS011;10179;42.640;23.312;2023-09-18T12:45:11;6.00;;;4.05;;
20036;SDS011;10179;42.640;23.312;2023-09-18T12:47:37;6.88;;;4.43;;
20036;SDS011;10179;42.640;23.312;2023-09-18T12:50:04;15.38;;;4.72;;
20036;SDS011;10179;42.640;23.312;2023-09-18T12:52:32;9.27;;;4.75;;
20036;SDS011;10179;42.640;23.312;2023-09-18T12:54:58;8.35;;;4.32;;
20036;SDS011;10179;42.640;23.312;2023-09-18T12:57:25;7.70;;;4.57;;
20036;SDS011;10179;42.640;23.312;2023-09-18T12:59:51;9.10;;;4.18;;
20036;SDS011;10179;42.640;23.312;2023-09-18T13:02:19;7.32;;;4.20;;
20036;SDS011;10179;42.640;23.312;2023-09-18T13:04:54;6.80;;;4.22;;
20036;SDS011;10179;42.640;23.312;2023-09-18T13:07:21;5.45;;;4.35;;
20036;SDS011;10179;42.640;23.312;2023-09-18T13:09:58;5.70;;;4.15;;
20036;SDS011;10179;42.640;23.312;2023-09-18T13:12:41;6.50;;;4.50;;
20036;SDS011;10179;42.640;23.312;2023-09-18T13:15:06;7.28;;;4.13;;
20036;SDS011;10179;42.640;23.312;2023-09-18T13:17:44;8.10;;;4.38;;
20036;SDS011;10179;42.640;23.312;2023-09-18T13:20:14;5.60;;;3.83;;
20036;SDS011;10179;42.640;23.312;2023-09-18T13:22:42;8.38;;;4.15;;
20036;SDS011;10179;42.640;23.312;2023-09-18T13:25:13;8.13;;;4.43;;
20036;SDS011;10179;42.640;23.312;2023-09-18T13:27:46;5.60;;;3.90;;
20036;SDS011;10179;42.640;23.312;2023-09-18T13:30:11;5.32;;;3.88;;
20036;SDS011;10179;42.640;23.312;2023-09-18T13:32:42;5.90;;;3.97;;
20036;SDS011;10179;42.640;23.312;2023-09-18T13:35:10;7.25;;;4.25;;
20036;SDS011;10179;42.640;23.312;2023-09-18T13:37:39;8.68;;;4.25;;
20036;SDS011;10179;42.640;23.312;2023-09-18T13:40:05;7.55;;;4.35;;
20036;SDS011;10179;42.640;23.312;2023-09-18T13:42:36;5.55;;;4.25;;
20036;SDS011;10179;42.640;23.312;2023-09-18T13:45:03;6.18;;;4.38;;
20036;SDS011;10179;42.640;23.312;2023-09-18T13:47:31;7.47;;;4.60;;
20036;SDS011;10179;42.640;23.312;2023-09-18T13:49:57;5.43;;;4.15;;
20036;SDS011;10179;42.640;23.312;2023-09-18T13:52:25;7.82;;;4.03;;
20036;SDS011;10179;42.640;23.312;2023-09-18T13:54:51;6.78;;;4.20;;
20036;SDS011;10179;42.640;23.312;2023-09-18T13:57:17;12.73;;;4.40;;
20036;SDS011;10179;42.640;23.312;2023-09-18T13:59:47;5.88;;;4.55;;
20036;SDS011;10179;42.640;23.312;2023-09-18T14:02:14;10.27;;;4.18;;
20036;SDS011;10179;42.640;23.312;2023-09-18T14:04:40;9.75;;;4.40;;
20036;SDS011;10179;42.640;23.312;2023-09-18T14:07:06;7.45;;;4.32;;
20036;SDS011;10179;42.640;23.312;2023-09-18T14:09:33;6.75;;;4.30;;
20036;SDS011;10179;42.640;23.312;2023-09-18T14:11:58;6.75;;;4.38;;
20036;SDS011;10179;42.640;23.312;2023-09-18T14:14:24;7.72;;;4.03;;
20036;SDS011;10179;42.640;23.312;2023-09-18T14:16:49;6.57;;;4.40;;
20036;SDS011;10179;42.640;23.312;2023-09-18T14:19:18;6.63;;;4.43;;
20036;SDS011;10179;42.640;23.312;2023-09-18T14:21:44;6.32;;;4.53;;
20036;SDS011;10179;42.640;23.312;2023-09-18T14:24:10;4.70;;;4.20;;
20036;SDS011;10179;42.640;23.312;2023-09-18T14:26:36;10.00;;;4.47;;
20036;SDS011;10179;42.640;23.312;2023-09-18T14:29:08;7.15;;;4.32;;
20036;SDS011;10179;42.640;23.312;2023-09-18T14:31:37;6.57;;;4.60;;
20036;SDS011;10179;42.640;23.312;2023-09-18T14:34:03;6.50;;;4.65;;
20036;SDS011;10179;42.640;23.312;2023-09-18T14:36:30;7.55;;;4.30;;